sensor_id;sensor_type;location;lat;lon;timestamp;P1;durP1;ratioP1;P2;durP2;ratioP2
18338;SDS011;9295;44.484;11.240;2024-02-21T00:00:05;61.87;;;31.20;;
18338;SDS011;9295;44.484;11.240;2024-02-21T00:02:34;53.10;;;29.87;;
18338;SDS011;9295;44.484;11.240;2024-02-21T00:05:03;52.50;;;31.60;;
18338;SDS011;9295;44.484;11.240;2024-02-21T00:07:32;53.13;;;31.07;;
18338;SDS011;9295;44.484;11.240;2024-02-21T00:10:01;48.80;;;28.30;;
18338;SDS011;9295;44.484;11.240;2024-02-21T00:12:30;51.10;;;28.50;;
18338;SDS011;9295;44.484;11.240;2024-02-21T00:14:59;53.43;;;30.70;;
18338;SDS011;9295;44.484;11.240;2024-02-21T00:17:29;56.60;;;29.43;;
18338;SDS011;9295;44.484;11.240;2024-02-21T00:19:57;62.73;;;30.73;;
18338;SDS011;9295;44.484;11.240;2024-02-21T00:22:26;50.70;;;28.50;;
18338;SDS011;9295;44.484;11.240;2024-02-21T00:24:58;54.50;;;29.90;;
18338;SDS011;9295;44.484;11.240;2024-02-21T00:27:27;52.13;;;29.77;;
18338;SDS011;9295;44.484;11.240;2024-02-21T00:29:56;54.07;;;29.90;;
18338;SDS011;9295;44.484;11.240;2024-02-21T00:32:24;55.70;;;31.90;;
18338;SDS011;9295;44.484;11.240;2024-02-21T00:34:54;51.40;;;29.83;;
18338;SDS011;9295;44.484;11.240;2024-02-21T00:37:23;57.17;;;31.03;;
18338;SDS011;9295;44.484;11.240;2024-02-21T00:39:52;55.00;;;30.83;;
18338;SDS011;9295;44.484;11.240;2024-02-21T00:42:21;53.47;;;29.63;;
18338;SDS011;9295;44.484;11.240;2024-02-21T00:44:50;58.80;;;30.53;;
18338;SDS011;9295;44.484;11.240;2024-02-21T00:47:19;48.20;;;27.90;;
18338;SDS011;9295;44.484;11.240;2024-02-21T00:49:47;49.87;;;28.23;;
18338;SDS011;9295;44.484;11.240;2024-02-21T00:52:18;44.20;;;26.40;;
18338;SDS011;9295;44.484;11.240;2024-02-21T00:54:46;50.53;;;29.97;;
18338;SDS011;9295;44.484;11.240;2024-02-21T00:57:20;53.83;;;30.07;;
18338;SDS011;9295;44.484;11.240;2024-02-21T00:59:50;51.53;;;29.43;;
18338;SDS011;9295;44.484;11.240;2024-02-21T01:02:19;53.20;;;31.97;;
18338;SDS011;9295;44.484;11.240;2024-02-21T01:04:47;57.53;;;31.10;;
18338;SDS011;9295;44.484;11.240;2024-02-21T01:07:17;52.13;;;31.33;;
18338;SDS011;9295;44.484;11.240;2024-02-21T01:09:46;49.57;;;29.10;;
18338;SDS011;9295;44.484;11.240;2024-02-21T01:12:15;50.00;;;28.10;;
18338;SDS011;9295;44.484;11.240;2024-02-21T01:14:44;53.47;;;30.30;;
18338;SDS011;9295;44.484;11.240;2024-02-21T01:17:13;55.13;;;30.23;;
18338;SDS011;9295;44.484;11.240;2024-02-21T01:19:41;53.90;;;30.27;;
18338;SDS011;9295;44.484;11.240;2024-02-21T01:22:10;54.60;;;30.40;;
18338;SDS011;9295;44.484;11.240;2024-02-21T01:24:40;54.87;;;31.00;;
18338;SDS011;9295;44.484;11.240;2024-02-21T01:27:08;53.87;;;28.63;;
18338;SDS011;9295;44.484;11.240;2024-02-21T01:29:37;55.17;;;29.10;;
18338;SDS011;9295;44.484;11.240;2024-02-21T01:32:06;54.50;;;29.20;;
18338;SDS011;9295;44.484;11.240;2024-02-21T01:34:35;50.07;;;27.73;;
18338;SDS011;9295;44.484;11.240;2024-02-21T01:37:04;59.73;;;29.60;;
18338;SDS011;9295;44.484;11.240;2024-02-21T01:39:34;51.20;;;28.00;;
18338;SDS011;9295;44.484;11.240;2024-02-21T01:42:04;53.37;;;30.53;;
18338;SDS011;9295;44.484;11.240;2024-02-21T01:44:33;52.97;;;29.17;;
18338;SDS011;9295;44.484;11.240;2024-02-21T01:47:01;50.03;;;29.50;;
18338;SDS011;9295;44.484;11.240;2024-02-21T01:49:30;53.80;;;30.50;;
18338;SDS011;9295;44.484;11.240;2024-02-21T01:51:59;58.67;;;32.13;;
18338;SDS011;9295;44.484;11.240;2024-02-21T01:54:28;57.10;;;31.43;;
18338;SDS011;9295;44.484;11.240;2024-02-21T01:56:57;56.17;;;30.77;;
18338;SDS011;9295;44.484;11.240;2024-02-21T01:59:27;52.23;;;30.43;;
18338;SDS011;9295;44.484;11.240;2024-02-21T02:01:56;59.40;;;30.50;;
18338;SDS011;9295;44.484;11.240;2024-02-21T02:04:26;55.93;;;32.60;;
18338;SDS011;9295;44.484;11.240;2024-02-21T02:06:55;57.37;;;30.93;;
18338;SDS011;9295;44.484;11.240;2024-02-21T02:09:24;54.83;;;28.93;;
18338;SDS011;9295;44.484;11.240;2024-02-21T02:11:53;52.13;;;30.53;;
18338;SDS011;9295;44.484;11.240;2024-02-21T02:14:22;58.67;;;31.20;;
18338;SDS011;9295;44.484;11.240;2024-02-21T02:16:52;58.63;;;31.63;;
18338;SDS011;9295;44.484;11.240;2024-02-21T02:19:21;59.87;;;31.70;;
18338;SDS011;9295;44.484;11.240;2024-02-21T02:21:50;57.37;;;31.03;;
18338;SDS011;9295;44.484;11.240;2024-02-21T02:24:24;58.43;;;29.60;;
18338;SDS011;9295;44.484;11.240;2024-02-21T02:26:53;56.30;;;31.17;;
18338;SDS011;9295;44.484;11.240;2024-02-21T02:29:22;52.83;;;29.70;;
18338;SDS011;9295;44.484;11.240;2024-02-21T02:31:50;57.37;;;29.57;;
18338;SDS011;9295;44.484;11.240;2024-02-21T02:34:19;55.57;;;30.60;;
18338;SDS011;9295;44.484;11.240;2024-02-21T02:36:48;57.60;;;31.00;;
18338;SDS011;9295;44.484;11.240;2024-02-21T02:39:16;62.30;;;32.73;;
18338;SDS011;9295;44.484;11.240;2024-02-21T02:41:46;59.90;;;33.47;;
18338;SDS011;9295;44.484;11.240;2024-02-21T02:44:15;64.20;;;34.37;;
18338;SDS011;9295;44.484;11.240;2024-02-21T02:46:44;60.23;;;32.40;;
18338;SDS011;9295;44.484;11.240;2024-02-21T02:49:12;56.80;;;32.10;;
18338;SDS011;9295;44.484;11.240;2024-02-21T02:51:41;61.10;;;32.53;;
18338;SDS011;9295;44.484;11.240;2024-02-21T02:54:10;59.90;;;32.93;;
18338;SDS011;9295;44.484;11.240;2024-02-21T02:56:39;56.40;;;31.03;;
18338;SDS011;9295;44.484;11.240;2024-02-21T02:59:09;54.30;;;30.43;;
18338;SDS011;9295;44.484;11.240;2024-02-21T03:01:38;58.03;;;32.10;;
18338;SDS011;9295;44.484;11.240;2024-02-21T03:04:07;52.20;;;29.67;;
18338;SDS011;9295;44.484;11.240;2024-02-21T03:06:35;56.10;;;31.20;;
18338;SDS011;9295;44.484;11.240;2024-02-21T03:09:04;59.83;;;32.10;;
18338;SDS011;9295;44.484;11.240;2024-02-21T03:11:35;58.63;;;33.20;;
18338;SDS011;9295;44.484;11.240;2024-02-21T03:14:08;55.70;;;31.80;;
18338;SDS011;9295;44.484;11.240;2024-02-21T03:16:38;59.30;;;32.17;;
18338;SDS011;9295;44.484;11.240;2024-02-21T03:19:06;54.60;;;29.37;;
18338;SDS011;9295;44.484;11.240;2024-02-21T03:21:35;55.33;;;30.77;;
18338;SDS011;9295;44.484;11.240;2024-02-21T03:24:04;57.27;;;31.97;;
18338;SDS011;9295;44.484;11.240;2024-02-21T03:26:33;59.17;;;31.07;;
18338;SDS011;9295;44.484;11.240;2024-02-21T03:29:02;54.90;;;30.50;;
18338;SDS011;9295;44.484;11.240;2024-02-21T03:31:32;58.23;;;32.40;;
18338;SDS011;9295;44.484;11.240;2024-02-21T03:34:01;61.40;;;31.43;;
18338;SDS011;9295;44.484;11.240;2024-02-21T03:36:30;66.43;;;33.00;;
18338;SDS011;9295;44.484;11.240;2024-02-21T03:38:59;62.87;;;33.07;;
18338;SDS011;9295;44.484;11.240;2024-02-21T03:41:27;59.30;;;32.67;;
18338;SDS011;9295;44.484;11.240;2024-02-21T03:43:56;58.63;;;31.77;;
18338;SDS011;9295;44.484;11.240;2024-02-21T03:46:25;57.17;;;31.20;;
18338;SDS011;9295;44.484;11.240;2024-02-21T03:48:56;56.43;;;31.07;;
18338;SDS011;9295;44.484;11.240;2024-02-21T03:51:24;61.27;;;31.00;;
18338;SDS011;9295;44.484;11.240;2024-02-21T03:53:53;61.33;;;32.07;;
18338;SDS011;9295;44.484;11.240;2024-02-21T03:56:22;62.60;;;31.90;;
18338;SDS011;9295;44.484;11.240;2024-02-21T03:58:50;61.93;;;33.03;;
18338;SDS011;9295;44.484;11.240;2024-02-21T04:01:19;54.87;;;32.03;;
18338;SDS011;9295;44.484;11.240;2024-02-21T04:03:48;64.33;;;32.37;;
18338;SDS011;9295;44.484;11.240;2024-02-21T04:06:18;64.50;;;31.27;;
18338;SDS011;9295;44.484;11.240;2024-02-21T04:08:47;63.20;;;32.13;;
18338;SDS011;9295;44.484;11.240;2024-02-21T04:11:15;65.03;;;31.97;;
18338;SDS011;9295;44.484;11.240;2024-02-21T04:13:45;69.57;;;33.50;;
18338;SDS011;9295;44.484;11.240;2024-02-21T04:16:16;63.73;;;33.20;;
18338;SDS011;9295;44.484;11.240;2024-02-21T04:18:45;68.20;;;34.30;;
18338;SDS011;9295;44.484;11.240;2024-02-21T04:21:14;65.00;;;31.87;;
18338;SDS011;9295;44.484;11.240;2024-02-21T04:23:46;63.93;;;35.53;;
18338;SDS011;9295;44.484;11.240;2024-02-21T04:26:15;63.73;;;33.27;;
18338;SDS011;9295;44.484;11.240;2024-02-21T04:28:44;68.63;;;36.67;;
18338;SDS011;9295;44.484;11.240;2024-02-21T04:31:13;71.03;;;37.20;;
18338;SDS011;9295;44.484;11.240;2024-02-21T04:33:42;70.03;;;36.90;;
18338;SDS011;9295;44.484;11.240;2024-02-21T04:36:11;67.03;;;36.10;;
18338;SDS011;9295;44.484;11.240;2024-02-21T04:38:40;68.17;;;36.87;;
18338;SDS011;9295;44.484;11.240;2024-02-21T04:41:10;69.93;;;37.10;;
18338;SDS011;9295;44.484;11.240;2024-02-21T04:43:38;72.17;;;36.80;;
18338;SDS011;9295;44.484;11.240;2024-02-21T04:46:07;66.80;;;34.43;;
18338;SDS011;9295;44.484;11.240;2024-02-21T04:48:36;65.83;;;36.10;;
18338;SDS011;9295;44.484;11.240;2024-02-21T04:51:05;76.40;;;37.93;;
18338;SDS011;9295;44.484;11.240;2024-02-21T04:53:33;72.80;;;37.50;;
18338;SDS011;9295;44.484;11.240;2024-02-21T04:56:02;68.77;;;36.30;;
18338;SDS011;9295;44.484;11.240;2024-02-21T04:58:32;66.57;;;34.37;;
18338;SDS011;9295;44.484;11.240;2024-02-21T05:01:01;69.97;;;36.73;;
18338;SDS011;9295;44.484;11.240;2024-02-21T05:03:30;71.53;;;37.03;;
18338;SDS011;9295;44.484;11.240;2024-02-21T05:05:58;66.20;;;35.27;;
18338;SDS011;9295;44.484;11.240;2024-02-21T05:08:27;70.13;;;35.50;;
18338;SDS011;9295;44.484;11.240;2024-02-21T05:10:56;75.63;;;36.80;;
18338;SDS011;9295;44.484;11.240;2024-02-21T05:13:25;62.07;;;34.13;;
18338;SDS011;9295;44.484;11.240;2024-02-21T05:15:55;67.30;;;36.43;;
18338;SDS011;9295;44.484;11.240;2024-02-21T05:18:24;63.20;;;35.00;;
18338;SDS011;9295;44.484;11.240;2024-02-21T05:20:52;61.00;;;32.17;;
18338;SDS011;9295;44.484;11.240;2024-02-21T05:23:21;63.80;;;34.73;;
18338;SDS011;9295;44.484;11.240;2024-02-21T05:25:50;69.30;;;35.10;;
18338;SDS011;9295;44.484;11.240;2024-02-21T05:28:19;68.80;;;34.80;;
18338;SDS011;9295;44.484;11.240;2024-02-21T05:30:47;72.07;;;34.00;;
18338;SDS011;9295;44.484;11.240;2024-02-21T05:33:18;66.50;;;35.67;;
18338;SDS011;9295;44.484;11.240;2024-02-21T05:35:48;67.60;;;33.87;;
18338;SDS011;9295;44.484;11.240;2024-02-21T05:38:17;65.70;;;35.23;;
18338;SDS011;9295;44.484;11.240;2024-02-21T05:40:46;72.87;;;35.80;;
18338;SDS011;9295;44.484;11.240;2024-02-21T05:43:15;67.67;;;35.70;;
18338;SDS011;9295;44.484;11.240;2024-02-21T05:45:44;74.20;;;38.20;;
18338;SDS011;9295;44.484;11.240;2024-02-21T05:48:13;68.27;;;37.00;;
18338;SDS011;9295;44.484;11.240;2024-02-21T05:50:43;77.07;;;39.20;;
18338;SDS011;9295;44.484;11.240;2024-02-21T05:53:12;74.70;;;39.60;;
18338;SDS011;9295;44.484;11.240;2024-02-21T05:55:40;73.93;;;37.83;;
18338;SDS011;9295;44.484;11.240;2024-02-21T05:58:09;79.17;;;39.60;;
18338;SDS011;9295;44.484;11.240;2024-02-21T06:00:40;71.90;;;37.47;;
18338;SDS011;9295;44.484;11.240;2024-02-21T06:03:09;66.87;;;35.93;;
18338;SDS011;9295;44.484;11.240;2024-02-21T06:05:37;73.97;;;37.13;;
18338;SDS011;9295;44.484;11.240;2024-02-21T06:08:07;75.37;;;37.97;;
18338;SDS011;9295;44.484;11.240;2024-02-21T06:10:37;66.50;;;36.67;;
18338;SDS011;9295;44.484;11.240;2024-02-21T06:13:05;73.50;;;37.47;;
18338;SDS011;9295;44.484;11.240;2024-02-21T06:15:34;71.97;;;36.07;;
18338;SDS011;9295;44.484;11.240;2024-02-21T06:18:03;70.30;;;36.33;;
18338;SDS011;9295;44.484;11.240;2024-02-21T06:20:32;69.80;;;35.53;;
18338;SDS011;9295;44.484;11.240;2024-02-21T06:23:03;78.97;;;38.07;;
18338;SDS011;9295;44.484;11.240;2024-02-21T06:25:33;74.50;;;37.00;;
18338;SDS011;9295;44.484;11.240;2024-02-21T06:28:01;69.70;;;35.50;;
18338;SDS011;9295;44.484;11.240;2024-02-21T06:30:30;68.33;;;34.03;;
18338;SDS011;9295;44.484;11.240;2024-02-21T06:32:59;66.93;;;34.67;;
18338;SDS011;9295;44.484;11.240;2024-02-21T06:35:29;72.27;;;37.47;;
18338;SDS011;9295;44.484;11.240;2024-02-21T06:37:58;69.03;;;35.70;;
18338;SDS011;9295;44.484;11.240;2024-02-21T06:40:27;62.73;;;33.07;;
18338;SDS011;9295;44.484;11.240;2024-02-21T06:42:57;64.57;;;34.80;;
18338;SDS011;9295;44.484;11.240;2024-02-21T06:45:26;64.23;;;34.37;;
18338;SDS011;9295;44.484;11.240;2024-02-21T06:47:55;66.10;;;34.17;;
18338;SDS011;9295;44.484;11.240;2024-02-21T06:50:24;67.17;;;35.20;;
18338;SDS011;9295;44.484;11.240;2024-02-21T06:52:53;61.17;;;33.00;;
18338;SDS011;9295;44.484;11.240;2024-02-21T06:55:21;67.23;;;33.90;;
18338;SDS011;9295;44.484;11.240;2024-02-21T06:57:50;67.13;;;34.83;;
18338;SDS011;9295;44.484;11.240;2024-02-21T07:00:20;63.40;;;35.20;;
18338;SDS011;9295;44.484;11.240;2024-02-21T07:02:51;65.07;;;34.10;;
18338;SDS011;9295;44.484;11.240;2024-02-21T07:05:20;65.80;;;34.60;;
18338;SDS011;9295;44.484;11.240;2024-02-21T07:07:49;79.90;;;33.57;;
18338;SDS011;9295;44.484;11.240;2024-02-21T07:10:18;59.73;;;31.57;;
18338;SDS011;9295;44.484;11.240;2024-02-21T07:12:46;55.47;;;28.97;;
18338;SDS011;9295;44.484;11.240;2024-02-21T07:15:15;56.40;;;29.30;;
18338;SDS011;9295;44.484;11.240;2024-02-21T07:17:45;55.07;;;30.10;;
18338;SDS011;9295;44.484;11.240;2024-02-21T07:20:14;54.70;;;30.87;;
18338;SDS011;9295;44.484;11.240;2024-02-21T07:22:43;56.70;;;29.93;;
18338;SDS011;9295;44.484;11.240;2024-02-21T07:25:13;59.03;;;32.73;;
18338;SDS011;9295;44.484;11.240;2024-02-21T07:27:42;52.60;;;32.00;;
18338;SDS011;9295;44.484;11.240;2024-02-21T07:30:12;54.47;;;30.27;;
18338;SDS011;9295;44.484;11.240;2024-02-21T07:32:43;48.90;;;29.70;;
18338;SDS011;9295;44.484;11.240;2024-02-21T07:35:13;58.87;;;33.83;;
18338;SDS011;9295;44.484;11.240;2024-02-21T07:37:42;49.70;;;30.07;;
18338;SDS011;9295;44.484;11.240;2024-02-21T07:40:12;47.40;;;27.37;;
18338;SDS011;9295;44.484;11.240;2024-02-21T07:42:42;44.60;;;28.20;;
18338;SDS011;9295;44.484;11.240;2024-02-21T07:45:16;39.47;;;24.83;;
18338;SDS011;9295;44.484;11.240;2024-02-21T07:47:48;43.27;;;27.23;;
18338;SDS011;9295;44.484;11.240;2024-02-21T07:50:19;46.80;;;29.00;;
18338;SDS011;9295;44.484;11.240;2024-02-21T07:52:47;43.47;;;26.57;;
18338;SDS011;9295;44.484;11.240;2024-02-21T07:55:16;52.33;;;29.27;;
18338;SDS011;9295;44.484;11.240;2024-02-21T07:57:45;46.27;;;29.47;;
18338;SDS011;9295;44.484;11.240;2024-02-21T08:00:14;48.10;;;30.10;;
18338;SDS011;9295;44.484;11.240;2024-02-21T08:02:47;46.73;;;30.20;;
18338;SDS011;9295;44.484;11.240;2024-02-21T08:05:16;50.63;;;31.13;;
18338;SDS011;9295;44.484;11.240;2024-02-21T08:07:48;47.57;;;31.23;;
18338;SDS011;9295;44.484;11.240;2024-02-21T08:10:16;48.60;;;29.70;;
18338;SDS011;9295;44.484;11.240;2024-02-21T08:12:45;45.80;;;30.27;;
18338;SDS011;9295;44.484;11.240;2024-02-21T08:15:14;49.67;;;29.23;;
18338;SDS011;9295;44.484;11.240;2024-02-21T08:17:43;50.30;;;30.80;;
18338;SDS011;9295;44.484;11.240;2024-02-21T08:20:11;46.40;;;29.80;;
18338;SDS011;9295;44.484;11.240;2024-02-21T08:22:42;47.77;;;31.70;;
18338;SDS011;9295;44.484;11.240;2024-02-21T08:25:10;51.30;;;33.07;;
18338;SDS011;9295;44.484;11.240;2024-02-21T08:27:39;51.63;;;32.27;;
